createdAt,value
2022-09-09T00:00:50.085Z,1999.90
2022-09-09T00:03:26.888Z,1999.90
2022-09-09T00:05:59.157Z,1999.90
2022-09-09T00:08:59.418Z,1999.90
2022-09-09T00:11:44.289Z,1999.90
2022-09-09T00:14:35.713Z,1999.90
2022-09-09T00:17:07.457Z,1999.90
2022-09-09T00:19:54.504Z,1999.90
2022-09-09T00:22:24.600Z,1999.90
2022-09-09T00:24:58.145Z,1999.90
2022-09-09T00:27:48.696Z,1999.90
2022-09-09T00:30:27.305Z,1999.90
2022-09-09T00:33:14.076Z,1999.90
2022-09-09T00:35:48.239Z,1999.90
2022-09-09T00:38:16.334Z,1999.90
2022-09-09T00:40:49.764Z,1999.90
2022-09-09T00:43:32.600Z,1999.90
2022-09-09T00:46:26.282Z,1999.90
2022-09-09T00:49:10.668Z,1999.90
2022-09-09T00:51:49.465Z,1999.90
2022-09-09T00:54:44.162Z,1999.90
2022-09-09T00:57:37.184Z,1999.90
2022-09-09T01:00:21.149Z,1999.90
2022-09-09T01:02:59.246Z,1999.90
2022-09-09T01:05:34.703Z,1999.90
2022-09-09T01:08:04.109Z,1999.90
2022-09-09T01:10:52.255Z,1999.90
2022-09-09T01:13:30.988Z,1999.90
2022-09-09T01:16:02.022Z,1999.90
2022-09-09T01:18:38.044Z,1999.90
2022-09-09T01:21:40.056Z,1999.90
2022-09-09T01:24:23.600Z,1999.90
2022-09-09T01:27:04.939Z,1999.90
2022-09-09T01:29:33.279Z,1999.90
2022-09-09T01:32:02.457Z,1999.90
2022-09-09T01:34:35.525Z,1999.90
2022-09-09T01:37:08.569Z,1999.90
2022-09-09T01:39:37.197Z,1999.90
2022-09-09T01:42:12.857Z,1999.90
2022-09-09T01:44:40.667Z,1999.90
2022-09-09T01:47:07.870Z,1999.90
2022-09-09T01:49:39.084Z,1999.90
2022-09-09T01:52:14.405Z,1999.90
2022-09-09T01:54:41.488Z,1999.90
2022-09-09T01:57:23.051Z,1999.90
2022-09-09T02:00:08.057Z,1999.90
2022-09-09T02:03:21.211Z,1999.90
2022-09-09T02:06:38.744Z,1999.90
2022-09-09T02:09:25.032Z,1999.90
2022-09-09T02:12:09.388Z,1999.90
2022-09-09T02:14:50.452Z,1999.90
2022-09-09T02:17:26.661Z,1999.90
2022-09-09T02:20:08.422Z,1999.90
2022-09-09T02:22:57.471Z,1999.90
2022-09-09T02:25:29.325Z,1999.90
2022-09-09T02:28:04.564Z,1999.90
2022-09-09T02:30:34.139Z,1999.90
2022-09-09T02:33:04.101Z,1999.90
2022-09-09T02:35:46.875Z,1999.90
2022-09-09T02:38:18.191Z,1999.90
2022-09-09T02:40:55.914Z,1999.90
2022-09-09T02:43:23.066Z,1999.90
2022-09-09T02:46:10.762Z,1999.90
2022-09-09T02:48:53.360Z,1999.90
2022-09-09T02:51:33.191Z,1999.90
2022-09-09T02:54:12.278Z,1999.90
2022-09-09T02:56:44.929Z,1999.90
2022-09-09T02:59:12.936Z,1999.90
2022-09-09T03:01:40.758Z,1999.90
2022-09-09T03:04:07.569Z,1999.90
2022-09-09T03:06:34.882Z,1999.90
2022-09-09T03:09:11.399Z,1999.90
2022-09-09T03:11:39.023Z,1999.90
2022-09-09T03:14:06.310Z,1999.90
2022-09-09T03:16:33.654Z,1999.90
2022-09-09T03:19:01.371Z,1999.90
2022-09-09T03:21:29.964Z,1999.90
2022-09-09T03:23:57.548Z,1999.90
2022-09-09T03:26:24.428Z,1999.90
2022-09-09T03:28:51.369Z,1999.90
2022-09-09T03:31:19.537Z,1999.90
2022-09-09T03:33:46.887Z,1999.90
2022-09-09T03:36:16.489Z,1999.90
2022-09-09T03:38:43.481Z,1999.90
2022-09-09T03:41:11.432Z,1999.90
2022-09-09T03:43:39.232Z,1999.90
2022-09-09T03:46:06.355Z,1999.90
2022-09-09T03:48:33.466Z,1999.90
2022-09-09T03:51:00.913Z,1999.90
2022-09-09T03:53:28.736Z,1999.90
2022-09-09T03:55:57.956Z,1999.90
2022-09-09T03:58:27.788Z,1999.90
2022-09-09T04:01:01.237Z,1999.90
2022-09-09T04:03:29.178Z,1999.90
2022-09-09T04:05:59.269Z,1999.90
2022-09-09T04:08:28.469Z,1999.90
2022-09-09T04:10:55.681Z,1999.90
2022-09-09T04:13:22.675Z,1999.90
2022-09-09T04:15:59.438Z,1999.90
2022-09-09T04:18:27.124Z,1999.90
2022-09-09T04:20:54.452Z,1999.90
2022-09-09T04:23:25.636Z,1999.90
2022-09-09T04:25:54.214Z,1999.90
2022-09-09T04:28:23.656Z,1999.90
2022-09-09T04:30:51.215Z,1999.90
2022-09-09T04:33:18.048Z,1999.90
2022-09-09T04:35:50.523Z,1999.90
2022-09-09T04:38:19.341Z,1999.90
2022-09-09T04:40:49.628Z,1999.90
2022-09-09T04:43:16.628Z,1999.90
2022-09-09T04:45:48.151Z,1999.90
2022-09-09T04:48:15.302Z,1999.90
2022-09-09T04:50:42.258Z,1999.90
2022-09-09T04:53:11.914Z,1999.90
2022-09-09T04:55:39.422Z,1999.90
2022-09-09T04:58:08.971Z,1999.90
2022-09-09T05:00:36.851Z,1999.90
2022-09-09T05:03:06.996Z,1999.90
2022-09-09T05:05:34.910Z,1999.90
2022-09-09T05:08:06.646Z,1999.90
2022-09-09T05:10:34.390Z,1999.90
2022-09-09T05:13:01.229Z,1999.90
2022-09-09T05:15:30.606Z,1999.90
2022-09-09T05:17:59.755Z,1999.90
2022-09-09T05:20:26.652Z,1999.90
2022-09-09T05:22:55.134Z,1999.90
2022-09-09T05:25:24.222Z,1999.90
2022-09-09T05:27:51.036Z,1999.90
2022-09-09T05:30:17.896Z,1999.90
2022-09-09T05:32:44.728Z,1999.90
2022-09-09T05:35:11.968Z,1999.90
2022-09-09T05:37:39.926Z,1999.90
2022-09-09T05:40:07.506Z,1999.90
2022-09-09T05:42:34.531Z,1999.90
2022-09-09T05:45:01.664Z,1999.90
2022-09-09T05:47:28.482Z,1999.90
2022-09-09T05:49:56.335Z,1999.90
2022-09-09T05:52:23.573Z,1999.90
2022-09-09T05:54:50.781Z,1999.90
2022-09-09T05:57:18.343Z,1999.90
2022-09-09T05:59:45.222Z,1999.90
2022-09-09T06:02:13.756Z,1999.90
2022-09-09T06:04:40.672Z,1999.90
2022-09-09T06:07:08.131Z,1999.90
2022-09-09T06:09:35.768Z,1999.90
2022-09-09T06:12:03.118Z,1999.90
2022-09-09T06:14:33.140Z,1999.90
2022-09-09T06:17:00.717Z,1999.90
2022-09-09T06:19:30.599Z,1999.90
2022-09-09T06:21:59.245Z,1999.90
2022-09-09T06:24:27.924Z,1999.90
2022-09-09T06:26:54.794Z,1999.90
2022-09-09T06:29:26.624Z,1999.90
2022-09-09T06:31:53.898Z,1999.90
2022-09-09T06:34:26.830Z,1999.90
2022-09-09T06:36:55.935Z,1999.90
2022-09-09T06:39:22.753Z,1999.90
2022-09-09T06:41:53.212Z,1999.90
2022-09-09T06:44:46.180Z,1999.90
2022-09-09T06:47:19.538Z,1999.90
2022-09-09T06:49:48.434Z,1999.90
2022-09-09T06:52:16.587Z,1999.90
2022-09-09T06:54:44.275Z,1999.90
2022-09-09T06:59:57.929Z,1999.90
2022-09-09T07:02:25.379Z,1999.90
2022-09-09T07:04:52.552Z,1999.90
2022-09-09T07:07:19.446Z,1999.90
2022-09-09T07:09:46.285Z,1999.90
2022-09-09T07:12:13.730Z,1999.90
2022-09-09T07:14:48.209Z,1999.90
2022-09-09T07:17:15.792Z,1999.90
2022-09-09T07:19:42.878Z,1999.90
2022-09-09T07:22:10.399Z,1999.90
2022-09-09T07:24:37.691Z,1999.90
2022-09-09T07:27:04.695Z,1999.90
2022-09-09T07:29:31.864Z,1999.90
2022-09-09T07:31:59.049Z,1999.90
2022-09-09T07:34:31.399Z,1999.90
2022-09-09T07:36:58.454Z,1999.90
2022-09-09T07:39:25.813Z,1999.90
2022-09-09T07:41:54.529Z,1999.90
2022-09-09T07:44:25.354Z,1999.90
2022-09-09T07:46:59.415Z,1999.90
2022-09-09T07:49:33.002Z,1999.90
2022-09-09T07:52:02.167Z,1999.90
2022-09-09T07:54:29.672Z,1999.90
2022-09-09T07:56:57.330Z,1999.90
2022-09-09T07:59:27.868Z,1999.90
2022-09-09T08:01:55.808Z,1999.90
2022-09-09T08:04:27.069Z,1999.90
2022-09-09T08:06:57.107Z,1999.90
2022-09-09T08:09:26.493Z,1999.90
2022-09-09T08:11:53.807Z,1999.90
2022-09-09T08:14:21.472Z,1999.90
2022-09-09T08:16:49.935Z,1999.90
2022-09-09T08:19:20.414Z,1999.90
2022-09-09T08:21:47.906Z,1999.90
2022-09-09T08:24:15.061Z,1999.90
2022-09-09T08:26:46.565Z,1999.90
2022-09-09T08:29:14.375Z,1999.90
2022-09-09T08:31:45.014Z,1999.90
2022-09-09T08:34:12.042Z,1999.90
2022-09-09T08:36:46.753Z,1999.90
2022-09-09T08:39:16.909Z,1999.90
2022-09-09T08:42:08.935Z,1999.90
2022-09-09T08:44:48.733Z,1999.90
2022-09-09T08:47:43.879Z,1999.90
2022-09-09T08:50:34.010Z,1999.90
2022-09-09T08:53:20.818Z,1999.90
2022-09-09T08:55:57.952Z,1999.90
2022-09-09T08:58:39.669Z,1999.90
2022-09-09T09:01:11.485Z,1999.90
2022-09-09T09:04:25.817Z,1999.90
2022-09-09T09:06:59.597Z,1999.90
2022-09-09T09:10:09.172Z,1999.90
2022-09-09T09:12:46.570Z,1999.90
2022-09-09T09:15:24.055Z,1999.90
2022-09-09T09:17:52.734Z,1999.90
2022-09-09T09:20:31.783Z,1999.90
2022-09-09T09:23:03.370Z,1999.90
2022-09-09T09:25:38.983Z,1999.90
2022-09-09T09:28:20.737Z,1999.90
2022-09-09T09:30:56.239Z,1999.90
2022-09-09T09:33:54.182Z,1999.90
2022-09-09T09:36:55.072Z,1999.90
2022-09-09T09:42:23.107Z,1999.90
2022-09-09T09:44:52.631Z,1999.90
2022-09-09T09:47:23.637Z,1999.90
2022-09-09T09:50:02.062Z,1999.90
2022-09-09T09:52:33.837Z,1999.90
2022-09-09T09:55:07.781Z,1999.90
2022-09-09T09:57:36.441Z,1999.90
2022-09-09T10:00:19.975Z,1999.90
2022-09-09T10:02:54.128Z,1999.90
2022-09-09T10:05:29.131Z,1999.90
2022-09-09T10:08:13.374Z,1999.90
2022-09-09T10:11:01.719Z,1999.90
2022-09-09T10:14:06.924Z,1999.90
2022-09-09T10:16:42.332Z,1999.90
2022-09-09T10:19:21.890Z,1999.90
2022-09-09T10:22:03.286Z,1999.90
2022-09-09T10:24:33.119Z,1999.90
2022-09-09T10:27:29.066Z,1999.90
2022-09-09T10:30:19.333Z,1999.90
2022-09-09T10:33:04.570Z,1999.90
2022-09-09T10:35:54.485Z,1999.90
2022-09-09T10:38:33.987Z,1999.90
2022-09-09T10:41:07.823Z,1999.90
2022-09-09T10:43:43.775Z,1999.90
2022-09-09T10:46:31.163Z,1999.90
2022-09-09T10:49:04.083Z,1999.90
2022-09-09T10:51:33.743Z,1999.90
2022-09-09T10:54:24.929Z,1999.90
2022-09-09T10:56:59.056Z,1999.90
2022-09-09T10:59:30.310Z,1999.90
2022-09-09T11:02:12.137Z,1999.90
2022-09-09T11:04:54.652Z,1999.90
2022-09-09T11:07:34.171Z,1999.90
2022-09-09T11:10:05.663Z,1999.90
2022-09-09T11:12:37.070Z,1999.90
2022-09-09T11:15:07.993Z,1999.90
2022-09-09T11:20:07.525Z,1999.90
2022-09-09T11:22:45.399Z,1999.90
2022-09-09T11:25:23.385Z,1999.90
2022-09-09T11:28:14.146Z,1999.90
2022-09-09T11:31:16.886Z,1999.90
2022-09-09T11:34:14.034Z,1999.90
2022-09-09T11:37:08.093Z,1999.90
2022-09-09T11:39:49.335Z,1999.90
2022-09-09T11:42:25.317Z,1999.90
2022-09-09T11:44:52.961Z,1999.90
2022-09-09T11:47:27.183Z,1999.90
2022-09-09T11:49:54.040Z,1999.90
2022-09-09T11:52:36.605Z,1999.90
2022-09-09T11:55:11.840Z,1999.90
2022-09-09T11:57:39.461Z,1999.90
2022-09-09T12:00:07.617Z,1999.90
2022-09-09T12:02:49.974Z,1999.90
2022-09-09T12:05:17.244Z,1999.90
2022-09-09T12:07:53.761Z,1999.90
2022-09-09T12:10:28.182Z,1999.90
2022-09-09T12:12:55.062Z,1999.90
2022-09-09T12:15:28.538Z,1999.90
2022-09-09T12:18:02.678Z,1999.90
2022-09-09T12:20:38.261Z,1999.90
2022-09-09T12:23:32.005Z,1999.90
2022-09-09T12:26:02.063Z,1999.90
2022-09-09T12:29:03.092Z,1999.90
2022-09-09T12:31:45.702Z,1999.90
2022-09-09T12:34:24.363Z,1999.90
2022-09-09T12:36:59.148Z,1999.90
2022-09-09T12:39:50.725Z,1999.90
2022-09-09T12:42:19.880Z,1999.90
2022-09-09T12:45:05.115Z,1999.90
2022-09-09T12:48:09.605Z,1999.90
2022-09-09T12:50:54.160Z,1999.90
2022-09-09T12:53:34.506Z,1999.90
2022-09-09T12:56:10.464Z,1999.90
2022-09-09T12:58:39.154Z,1999.90
2022-09-09T13:01:07.415Z,1999.90
2022-09-09T13:03:42.833Z,1999.90
2022-09-09T13:06:19.597Z,1999.90
2022-09-09T13:08:46.649Z,1999.90
2022-09-09T13:11:44.778Z,1999.90
2022-09-09T13:14:31.379Z,1999.90
2022-09-09T13:17:00.640Z,1999.90
2022-09-09T13:19:31.939Z,1999.90
2022-09-09T13:21:58.790Z,1999.90
2022-09-09T13:24:36.316Z,1999.90
2022-09-09T13:27:34.415Z,1999.90
2022-09-09T13:30:02.111Z,1999.90
2022-09-09T13:32:29.735Z,1999.90
2022-09-09T13:35:02.082Z,1999.90
2022-09-09T13:37:28.883Z,1999.90
2022-09-09T13:39:56.059Z,1999.90
2022-09-09T13:42:35.276Z,1999.90
2022-09-09T13:45:02.592Z,1999.90
2022-09-09T13:47:35.684Z,1999.90
2022-09-09T13:50:23.598Z,1999.90
2022-09-09T13:52:52.834Z,1999.90
2022-09-09T13:55:21.016Z,1999.90
2022-09-09T13:58:02.498Z,1999.90
2022-09-09T14:00:34.962Z,1999.90
2022-09-09T14:03:02.513Z,1999.90
2022-09-09T14:05:31.040Z,1999.90
2022-09-09T14:07:58.951Z,1999.90
2022-09-09T14:10:25.710Z,1999.90
2022-09-09T14:12:53.535Z,1999.90
2022-09-09T14:15:20.447Z,1999.90
2022-09-09T14:17:47.657Z,1999.90
2022-09-09T14:20:14.509Z,1999.90
2022-09-09T14:22:41.779Z,1999.90
2022-09-09T14:25:08.942Z,1999.90
2022-09-09T14:27:35.758Z,1999.90
2022-09-09T14:30:02.604Z,1999.90
2022-09-09T14:32:29.455Z,1999.90
2022-09-09T14:34:56.274Z,1999.90
2022-09-09T14:37:24.060Z,1999.90
2022-09-09T14:39:51.211Z,1999.90
2022-09-09T14:42:19.017Z,1999.90
2022-09-09T14:44:45.882Z,1999.90
2022-09-09T14:47:12.873Z,1999.90
2022-09-09T14:49:41.605Z,1999.90
2022-09-09T14:52:10.869Z,1999.90
2022-09-09T14:54:37.803Z,1999.90
2022-09-09T14:57:04.709Z,1999.90
2022-09-09T14:59:31.483Z,1999.90
2022-09-09T15:01:58.338Z,488.20
2022-09-09T15:04:25.136Z,1999.90
2022-09-09T15:06:51.956Z,1999.90
2022-09-09T15:09:18.794Z,1999.90
2022-09-09T15:11:45.627Z,1999.90
2022-09-09T15:14:12.426Z,1999.90
2022-09-09T15:16:40.502Z,1999.90
2022-09-09T15:19:07.310Z,506.15
2022-09-09T15:21:37.081Z,1999.90
2022-09-09T15:24:04.230Z,14.73
2022-09-09T15:26:31.290Z,5.38
2022-09-09T15:28:58.338Z,1.98
2022-09-09T15:31:27.649Z,0.82
2022-09-09T15:34:00.230Z,0.60
2022-09-09T15:36:48.057Z,0.30
2022-09-09T15:39:17.342Z,0.20
2022-09-09T15:41:45.599Z,2.15
2022-09-09T15:44:12.909Z,0.20
2022-09-09T15:46:41.967Z,0.22
2022-09-09T15:49:15.635Z,0.10
2022-09-09T15:51:45.773Z,0.10
2022-09-09T15:54:15.923Z,0.38
2022-09-09T15:56:43.167Z,0.17
2022-09-09T15:59:10.798Z,0.45
2022-09-09T16:01:37.698Z,0.20
2022-09-09T16:04:04.717Z,0.20
2022-09-09T16:06:31.739Z,0.20
2022-09-09T16:09:00.183Z,0.43
2022-09-09T16:11:29.714Z,0.63
2022-09-09T16:13:57.425Z,0.10
2022-09-09T16:16:26.970Z,1.88
2022-09-09T16:18:59.267Z,0.20
2022-09-09T16:21:36.250Z,0.45
2022-09-09T16:24:04.988Z,0.50
2022-09-09T16:26:34.551Z,0.10
2022-09-09T16:29:02.441Z,0.50
2022-09-09T16:31:30.343Z,0.40
2022-09-09T16:33:57.386Z,0.20
2022-09-09T16:36:26.949Z,0.63
2022-09-09T16:38:59.160Z,0.10
2022-09-09T16:41:28.151Z,0.10
2022-09-09T16:43:56.351Z,0.47
2022-09-09T16:46:24.396Z,0.57
2022-09-09T16:48:52.132Z,11.05
2022-09-09T16:51:20.967Z,3.30
2022-09-09T16:53:48.198Z,0.40
2022-09-09T16:56:20.770Z,0.10
2022-09-09T16:59:02.325Z,0.10
2022-09-09T17:01:32.185Z,0.10
2022-09-09T17:04:01.718Z,0.10
2022-09-09T17:06:30.284Z,0.10
2022-09-09T17:08:58.723Z,0.93
2022-09-09T17:11:26.493Z,0.10
2022-09-09T17:13:54.144Z,0.20
2022-09-09T17:16:23.069Z,0.10
2022-09-09T17:18:51.272Z,0.17
2022-09-09T17:21:20.649Z,0.30
2022-09-09T17:23:48.255Z,0.45
2022-09-09T17:26:18.089Z,0.32
2022-09-09T17:28:45.369Z,0.20
2022-09-09T17:31:14.800Z,0.20
2022-09-09T17:33:43.863Z,0.25
2022-09-09T17:36:14.050Z,0.32
2022-09-09T17:38:42.514Z,0.20
2022-09-09T17:41:14.715Z,0.20
2022-09-09T17:43:42.205Z,0.50
2022-09-09T17:46:10.636Z,0.40
2022-09-09T17:48:38.387Z,0.10
2022-09-09T17:51:07.119Z,0.28
2022-09-09T17:53:45.391Z,0.30
2022-09-09T17:56:14.292Z,0.45
2022-09-09T17:58:41.996Z,0.90
2022-09-09T18:01:15.615Z,0.25
2022-09-09T18:03:44.214Z,0.47
2022-09-09T18:06:23.592Z,0.20
2022-09-09T18:08:52.920Z,0.20
2022-09-09T18:11:23.310Z,0.38
2022-09-09T18:13:52.129Z,0.45
2022-09-09T18:16:19.667Z,0.25
2022-09-09T18:18:47.177Z,0.35
2022-09-09T18:21:14.369Z,0.10
2022-09-09T18:23:42.770Z,0.28
2022-09-09T18:26:21.340Z,0.25
2022-09-09T18:28:50.632Z,0.35
2022-09-09T18:31:19.944Z,0.20
2022-09-09T18:33:48.300Z,0.22
2022-09-09T18:36:18.505Z,0.20
2022-09-09T18:38:45.552Z,0.50
2022-09-09T18:41:22.799Z,0.50
2022-09-09T18:43:52.257Z,0.20
2022-09-09T18:46:20.410Z,0.28
2022-09-09T18:48:48.541Z,0.20
2022-09-09T18:51:17.667Z,0.25
2022-09-09T18:53:50.915Z,0.20
2022-09-09T18:56:18.117Z,0.32
2022-09-09T18:58:46.520Z,0.20
2022-09-09T19:01:15.671Z,0.13
2022-09-09T19:03:43.485Z,0.20
2022-09-09T19:06:16.648Z,0.10
2022-09-09T19:08:46.010Z,0.57
2022-09-09T19:11:16.298Z,0.20
2022-09-09T19:13:43.837Z,0.25
2022-09-09T19:16:14.589Z,0.20
2022-09-09T19:18:42.485Z,0.20
2022-09-09T19:21:14.187Z,0.13
2022-09-09T19:23:41.586Z,0.20
2022-09-09T19:26:08.820Z,0.28
2022-09-09T19:28:36.413Z,0.80
2022-09-09T19:31:09.080Z,1.48
2022-09-09T19:33:37.106Z,0.47
2022-09-09T19:36:08.160Z,0.22
2022-09-09T19:38:35.575Z,0.20
2022-09-09T19:41:12.280Z,0.52
2022-09-09T19:43:39.676Z,0.20
2022-09-09T19:46:09.192Z,0.55
2022-09-09T19:48:37.730Z,0.40
2022-09-09T19:51:17.603Z,0.60
2022-09-09T19:53:49.961Z,0.40
2022-09-09T19:56:18.623Z,0.50
2022-09-09T19:58:47.645Z,0.50
2022-09-09T20:01:17.704Z,0.47
2022-09-09T20:03:46.490Z,0.30
2022-09-09T20:06:15.301Z,0.28
2022-09-09T20:08:44.874Z,0.93
2022-09-09T20:11:12.072Z,0.50
2022-09-09T20:13:39.586Z,0.40
2022-09-09T20:16:08.975Z,1.15
2022-09-09T20:18:38.404Z,0.88
2022-09-09T20:21:16.155Z,0.90
2022-09-09T20:23:44.467Z,0.98
2022-09-09T20:26:14.147Z,0.45
2022-09-09T20:28:41.865Z,0.47
2022-09-09T20:31:15.284Z,0.38
2022-09-09T20:33:43.741Z,0.43
2022-09-09T20:36:15.462Z,0.17
2022-09-09T20:38:44.388Z,0.50
2022-09-09T20:41:12.025Z,0.82
2022-09-09T20:43:38.802Z,0.95
2022-09-09T20:46:05.872Z,0.30
2022-09-09T20:48:33.778Z,0.95
2022-09-09T20:51:05.490Z,0.40
2022-09-09T20:53:35.517Z,0.40
2022-09-09T20:56:03.610Z,0.40
2022-09-09T20:58:34.373Z,0.32
2022-09-09T21:01:02.186Z,0.30
2022-09-09T21:03:35.528Z,0.70
2022-09-09T21:06:02.748Z,0.30
2022-09-09T21:08:30.319Z,0.68
2022-09-09T21:10:57.610Z,0.43
2022-09-09T21:13:25.453Z,0.47
2022-09-09T21:15:52.666Z,1.02
2022-09-09T21:18:20.141Z,0.57
2022-09-09T21:20:47.123Z,1.33
2022-09-09T21:23:15.341Z,0.50
2022-09-09T21:25:42.959Z,0.40
2022-09-09T21:28:10.670Z,0.75
2022-09-09T21:30:43.832Z,0.82
2022-09-09T21:33:11.553Z,0.63
2022-09-09T21:35:42.124Z,0.70
2022-09-09T21:38:13.160Z,0.73
2022-09-09T21:43:08.557Z,0.55
2022-09-09T21:45:35.628Z,0.52
2022-09-09T21:48:02.810Z,0.57
2022-09-09T21:50:29.649Z,0.60
2022-09-09T21:52:56.434Z,0.77
2022-09-09T21:55:23.284Z,0.55
2022-09-09T21:57:50.209Z,0.73
2022-09-09T22:00:16.996Z,0.85
2022-09-09T22:02:46.937Z,0.82
2022-09-09T22:05:13.708Z,0.82
2022-09-09T22:07:40.808Z,0.60
2022-09-09T22:10:11.297Z,0.50
2022-09-09T22:12:38.521Z,0.50
2022-09-09T22:15:06.351Z,0.65
2022-09-09T22:17:34.920Z,1.00
2022-09-09T22:20:01.991Z,0.45
2022-09-09T22:22:28.805Z,0.57
2022-09-09T22:24:56.646Z,0.80
2022-09-09T22:27:23.560Z,0.80
2022-09-09T22:29:50.401Z,0.50
2022-09-09T22:32:17.488Z,0.50
2022-09-09T22:34:44.393Z,0.55
2022-09-09T22:37:11.221Z,0.90
2022-09-09T22:39:38.157Z,0.40
2022-09-09T22:42:05.317Z,0.68
2022-09-09T22:44:32.297Z,0.55
2022-09-09T22:46:59.151Z,1.35
2022-09-09T22:49:26.154Z,0.68
2022-09-09T22:51:53.600Z,0.60
2022-09-09T22:54:20.558Z,1.05
2022-09-09T22:56:51.516Z,0.47
2022-09-09T23:01:47.043Z,0.65
2022-09-09T23:04:14.112Z,0.95
2022-09-09T23:06:41.453Z,0.55
2022-09-09T23:09:08.269Z,0.70
2022-09-09T23:11:38.320Z,0.45
2022-09-09T23:14:07.776Z,0.40
2022-09-09T23:16:37.679Z,0.70
2022-09-09T23:19:05.981Z,0.82
2022-09-09T23:21:32.863Z,1.30
2022-09-09T23:24:00.310Z,0.80
2022-09-09T23:26:27.943Z,0.68
2022-09-09T23:28:57.100Z,0.45
2022-09-09T23:31:25.042Z,0.60
2022-09-09T23:33:53.476Z,0.80
2022-09-09T23:36:23.136Z,0.95
2022-09-09T23:38:50.414Z,0.73
2022-09-09T23:41:19.354Z,0.60
2022-09-09T23:43:46.347Z,0.60
2022-09-09T23:46:15.164Z,0.50
2022-09-09T23:48:43.004Z,0.47
2022-09-09T23:51:12.408Z,0.40
2022-09-09T23:53:41.005Z,0.57
2022-09-09T23:56:07.858Z,0.47
2022-09-09T23:58:34.945Z,0.45
